Time;durP1;ratioP1;P1;durP2;ratioP2;P2;SDS_P1;SDS_P2;PMS_P1;PMS_P2;Temp;Humidity;BMP_temperature;BMP_pressure;BME280_temperature;BME280_humidity;BME280_pressure;Samples;Min_cycle;Max_cycle;Signal;HPM_P1;HPM_P2
2021/10/04 00:00:45;;;;;;;9.65;4.80;;;10.80;99.90;;;;;;5071824;28;20044;-65
2021/10/04 00:03:11;;;;;;;7.05;4.45;;;10.90;99.90;;;;;;5045173;28;20064;-65
2021/10/04 00:05:36;;;;;;;7.05;5.35;;;10.90;99.90;;;;;;5035853;28;20094;-65
2021/10/04 00:08:03;;;;;;;10.27;5.38;;;10.90;99.90;;;;;;5051158;28;20080;-65
2021/10/04 00:10:29;;;;;;;7.95;4.72;;;10.90;99.90;;;;;;5051677;28;20040;-65
2021/10/04 00:12:55;;;;;;;7.07;4.85;;;10.90;99.90;;;;;;5050616;28;20033;-65
2021/10/04 00:15:22;;;;;;;7.63;4.95;;;10.90;99.90;;;;;;5053832;28;20032;-65
2021/10/04 00:17:48;;;;;;;9.75;5.82;;;10.90;99.90;;;;;;5053709;28;20043;-65
2021/10/04 00:20:16;;;;;;;7.55;5.38;;;10.80;99.90;;;;;;5045103;28;20052;-65
2021/10/04 00:22:42;;;;;;;7.28;4.88;;;10.80;99.90;;;;;;5046085;28;20068;-65
2021/10/04 00:25:09;;;;;;;11.07;5.10;;;10.80;99.90;;;;;;5041386;28;20049;-65
2021/10/04 00:27:35;;;;;;;12.20;5.07;;;10.80;99.90;;;;;;5053449;28;20394;-65
2021/10/04 00:30:05;;;;;;;7.68;4.32;;;10.80;99.90;;;;;;5063201;28;20040;-65
2021/10/04 00:32:36;;;;;;;10.35;5.25;;;10.80;99.90;;;;;;5056337;28;20037;-65
2021/10/04 00:35:04;;;;;;;7.57;4.43;;;10.80;99.90;;;;;;5054521;28;20063;-65
2021/10/04 00:37:30;;;;;;;9.63;4.35;;;10.80;99.90;;;;;;5055402;28;20044;-65
2021/10/04 00:39:56;;;;;;;7.30;4.50;;;10.80;99.90;;;;;;5050786;28;20094;-65
2021/10/04 00:42:22;;;;;;;11.50;4.63;;;10.80;99.90;;;;;;5050598;28;20045;-65
2021/10/04 00:44:49;;;;;;;5.95;4.38;;;10.80;99.90;;;;;;5058058;28;20044;-65
2021/10/04 00:47:15;;;;;;;7.53;4.60;;;10.80;99.90;;;;;;5050810;28;20506;-65
2021/10/04 00:49:41;;;;;;;6.97;4.20;;;10.80;99.90;;;;;;5041953;28;20029;-65
2021/10/04 00:52:07;;;;;;;7.00;4.43;;;10.80;99.90;;;;;;5062156;23;20512;-63
2021/10/04 00:54:32;;;;;;;7.32;4.35;;;10.80;99.90;;;;;;5068780;28;20064;-63
2021/10/04 00:56:58;;;;;;;8.77;4.45;;;10.80;99.90;;;;;;5068215;28;20060;-63
2021/10/04 00:59:24;;;;;;;5.05;3.75;;;10.70;99.90;;;;;;5064361;28;20040;-63
2021/10/04 01:01:49;;;;;;;7.18;4.15;;;10.70;99.90;;;;;;5061735;28;20043;-63
2021/10/04 01:04:15;;;;;;;9.23;4.30;;;10.70;99.90;;;;;;5065135;28;20123;-63
2021/10/04 01:06:40;;;;;;;7.85;4.45;;;10.70;99.90;;;;;;5066133;28;20477;-63
2021/10/04 01:09:06;;;;;;;8.55;4.25;;;10.70;99.90;;;;;;5067947;28;20041;-63
2021/10/04 01:11:32;;;;;;;11.27;4.38;;;10.70;99.90;;;;;;5068776;28;20029;-63
2021/10/04 01:13:58;;;;;;;8.77;4.45;;;10.70;99.90;;;;;;5068917;28;20036;-63
2021/10/04 01:16:23;;;;;;;8.60;4.10;;;10.70;99.90;;;;;;5066562;28;20040;-63
2021/10/04 01:18:49;;;;;;;7.72;4.70;;;10.70;99.90;;;;;;5064722;28;20048;-63
2021/10/04 01:21:15;;;;;;;8.35;4.53;;;10.70;99.90;;;;;;5062760;28;20171;-63
2021/10/04 01:23:41;;;;;;;9.32;4.32;;;10.70;99.90;;;;;;5057021;28;20086;-63
2021/10/04 01:26:06;;;;;;;6.85;4.05;;;10.70;99.90;;;;;;5059383;28;20039;-63
2021/10/04 01:28:32;;;;;;;8.73;4.43;;;10.70;99.90;;;;;;5057344;28;20486;-63
2021/10/04 01:30:58;;;;;;;7.50;4.43;;;10.70;99.90;;;;;;5053908;28;20037;-63
2021/10/04 01:33:24;;;;;;;8.27;4.30;;;10.70;99.90;;;;;;5063854;28;20248;-62
2021/10/04 01:35:49;;;;;;;7.70;4.28;;;10.70;99.90;;;;;;5062931;28;20043;-63
2021/10/04 01:38:15;;;;;;;9.90;4.50;;;10.70;99.90;;;;;;5069730;28;20040;-63
2021/10/04 01:40:43;;;;;;;7.25;4.07;;;10.70;99.90;;;;;;5060215;28;20036;-63
2021/10/04 01:43:10;;;;;;;9.05;3.70;;;10.70;99.90;;;;;;5063005;28;20041;-63
2021/10/04 01:45:36;;;;;;;6.82;3.78;;;10.70;99.90;;;;;;5068504;28;20045;-63
2021/10/04 01:48:02;;;;;;;10.13;4.18;;;10.70;99.90;;;;;;5055459;28;20048;-63
2021/10/04 01:50:30;;;;;;;5.20;3.85;;;10.70;99.90;;;;;;5062116;28;20048;-63
2021/10/04 01:52:56;;;;;;;5.78;3.28;;;10.70;99.90;;;;;;5069582;28;20048;-63
2021/10/04 01:55:22;;;;;;;6.68;3.92;;;10.70;99.90;;;;;;5068344;28;20086;-62
2021/10/04 01:57:48;;;;;;;7.88;4.22;;;10.70;99.90;;;;;;5068758;28;20038;-63
2021/10/04 02:00:16;;;;;;;6.38;3.90;;;10.70;99.90;;;;;;5069074;28;20048;-63
2021/10/04 02:02:43;;;;;;;7.68;3.45;;;10.70;99.90;;;;;;5064145;28;20040;-63
2021/10/04 02:05:09;;;;;;;6.38;3.72;;;10.70;99.90;;;;;;5059211;28;20127;-63
2021/10/04 02:07:37;;;;;;;7.63;3.20;;;10.70;99.90;;;;;;5060424;28;20379;-63
2021/10/04 02:10:09;;;;;;;5.75;3.45;;;10.70;99.90;;;;;;5067443;28;20044;-63
2021/10/04 02:12:35;;;;;;;4.57;3.70;;;10.70;99.90;;;;;;5071839;28;20060;-63
2021/10/04 02:15:01;;;;;;;5.32;3.10;;;10.70;99.90;;;;;;5068214;28;20469;-63
2021/10/04 02:17:27;;;;;;;6.82;3.50;;;10.70;99.90;;;;;;5065236;28;20132;-63
2021/10/04 02:19:52;;;;;;;9.95;3.60;;;10.70;99.90;;;;;;5072502;28;20128;-63
2021/10/04 02:22:18;;;;;;;7.22;3.40;;;10.70;99.90;;;;;;5070802;28;20131;-63
2021/10/04 02:24:43;;;;;;;7.32;3.20;;;10.70;99.90;;;;;;5066060;28;20051;-62
2021/10/04 02:27:09;;;;;;;6.22;3.25;;;10.70;99.90;;;;;;5071242;28;20083;-62
2021/10/04 02:29:35;;;;;;;6.18;3.10;;;10.70;99.90;;;;;;5070731;28;20067;-62
2021/10/04 02:32:00;;;;;;;8.00;3.22;;;10.70;99.90;;;;;;5069654;28;20036;-62
2021/10/04 02:34:26;;;;;;;5.65;2.90;;;10.70;99.90;;;;;;5070747;28;20066;-63
2021/10/04 02:36:51;;;;;;;7.53;3.58;;;10.60;99.90;;;;;;5072062;28;20044;-63
2021/10/04 02:39:17;;;;;;;6.00;3.35;;;10.70;99.90;;;;;;5067449;28;20079;-63
2021/10/04 02:41:43;;;;;;;4.70;3.03;;;10.60;99.90;;;;;;5062311;28;20035;-63
2021/10/04 02:44:08;;;;;;;6.78;3.00;;;10.60;99.90;;;;;;5066839;28;20044;-63
2021/10/04 02:46:34;;;;;;;4.45;2.60;;;10.70;99.90;;;;;;5072066;28;20048;-63
2021/10/04 02:48:59;;;;;;;5.65;2.83;;;10.60;99.90;;;;;;5069011;28;20416;-63
2021/10/04 02:51:25;;;;;;;3.55;2.80;;;10.70;99.90;;;;;;5059577;28;20060;-63
2021/10/04 02:53:50;;;;;;;6.95;2.85;;;10.70;99.90;;;;;;5076095;28;20032;-63
2021/10/04 02:56:16;;;;;;;4.57;2.67;;;10.60;99.90;;;;;;5079494;28;20037;-63
2021/10/04 02:58:42;;;;;;;6.53;2.97;;;10.60;99.90;;;;;;5063595;28;20081;-63
2021/10/04 03:01:07;;;;;;;4.75;2.22;;;10.60;99.90;;;;;;5069950;28;20444;-63
2021/10/04 03:03:33;;;;;;;6.72;3.00;;;10.60;99.90;;;;;;5070359;28;20043;-62
2021/10/04 03:05:58;;;;;;;6.85;2.70;;;10.60;99.90;;;;;;5059238;28;20550;-63
2021/10/04 03:08:24;;;;;;;5.47;2.67;;;10.60;99.90;;;;;;5063497;28;20507;-63
2021/10/04 03:10:49;;;;;;;4.93;2.55;;;10.60;99.90;;;;;;5068943;28;20047;-63
2021/10/04 03:13:15;;;;;;;7.07;2.42;;;10.60;99.90;;;;;;5068723;28;20040;-63
2021/10/04 03:15:41;;;;;;;5.03;2.33;;;10.60;99.90;;;;;;5068837;28;20064;-63
2021/10/04 03:18:06;;;;;;;5.20;2.90;;;10.60;99.90;;;;;;5064842;28;20118;-63
2021/10/04 03:20:32;;;;;;;8.10;2.67;;;10.60;99.90;;;;;;5072226;28;20105;-63
2021/10/04 03:22:58;;;;;;;7.53;2.78;;;10.60;99.90;;;;;;5069139;28;20044;-63
2021/10/04 03:25:24;;;;;;;5.32;2.42;;;10.50;99.90;;;;;;5069162;28;20037;-63
2021/10/04 03:27:50;;;;;;;6.43;2.53;;;10.60;99.90;;;;;;5070859;28;20040;-63
2021/10/04 03:30:16;;;;;;;5.63;2.85;;;10.50;99.90;;;;;;5070055;28;20375;-63
2021/10/04 03:32:43;;;;;;;6.53;2.60;;;10.50;99.90;;;;;;5070369;28;20382;-63
2021/10/04 03:35:09;;;;;;;6.32;2.50;;;10.50;99.90;;;;;;5070035;28;20040;-63
2021/10/04 03:37:36;;;;;;;5.63;2.40;;;10.50;99.90;;;;;;5069967;28;20047;-62
2021/10/04 03:40:03;;;;;;;7.75;2.40;;;10.50;99.90;;;;;;5071273;28;20067;-63
2021/10/04 03:42:29;;;;;;;4.93;2.55;;;10.40;99.90;;;;;;5067572;28;20059;-63
2021/10/04 03:44:54;;;;;;;5.82;2.55;;;10.40;99.90;;;;;;5068711;28;20040;-63
2021/10/04 03:47:20;;;;;;;7.00;2.33;;;10.40;99.90;;;;;;5070505;28;20080;-63
2021/10/04 03:49:45;;;;;;;5.07;2.38;;;10.50;99.90;;;;;;5065395;28;20058;-63
2021/10/04 03:52:11;;;;;;;5.03;2.13;;;10.50;99.90;;;;;;5062415;28;20122;-63
2021/10/04 03:54:37;;;;;;;5.53;2.20;;;10.50;99.90;;;;;;5069343;28;20041;-63
2021/10/04 03:57:02;;;;;;;4.05;2.17;;;10.50;99.90;;;;;;5065097;28;20505;-63
2021/10/04 03:59:28;;;;;;;8.25;2.42;;;10.50;99.90;;;;;;5060983;28;20032;-63
2021/10/04 04:01:53;;;;;;;6.80;2.75;;;10.50;99.90;;;;;;5068301;28;20503;-63
2021/10/04 04:04:19;;;;;;;6.75;2.72;;;10.50;99.90;;;;;;5066799;28;20048;-63
2021/10/04 04:06:45;;;;;;;4.75;1.77;;;10.50;99.90;;;;;;5068138;28;20079;-63
2021/10/04 04:09:10;;;;;;;6.65;3.20;;;10.50;99.90;;;;;;5069730;28;20036;-62
2021/10/04 04:11:36;;;;;;;4.70;2.20;;;10.50;99.90;;;;;;5067702;28;20416;-63
2021/10/04 04:14:03;;;;;;;4.93;2.15;;;10.60;99.90;;;;;;5068345;28;20051;-62
2021/10/04 04:16:29;;;;;;;4.68;2.50;;;10.60;99.90;;;;;;5070555;28;20089;-63
2021/10/04 04:18:54;;;;;;;3.13;1.83;;;10.60;99.90;;;;;;5066752;28;20028;-63
2021/10/04 04:21:20;;;;;;;6.80;2.10;;;10.60;99.90;;;;;;5051386;28;20045;-63
2021/10/04 04:23:45;;;;;;;5.45;2.08;;;10.60;99.90;;;;;;5069253;28;20024;-63
2021/10/04 04:26:11;;;;;;;5.85;2.20;;;10.50;99.90;;;;;;5059902;28;20037;-63
2021/10/04 04:28:37;;;;;;;7.00;1.88;;;10.50;99.90;;;;;;5063411;28;20050;-63
2021/10/04 04:31:03;;;;;;;9.68;2.47;;;10.50;99.90;;;;;;5070766;28;20048;-63
2021/10/04 04:33:28;;;;;;;5.00;2.22;;;10.50;99.90;;;;;;5064154;28;20410;-63
2021/10/04 04:35:54;;;;;;;4.68;2.05;;;10.40;99.90;;;;;;5063277;28;20036;-63
2021/10/04 04:38:19;;;;;;;3.65;2.00;;;10.40;99.90;;;;;;5069514;28;20056;-63
2021/10/04 04:40:45;;;;;;;5.35;2.08;;;10.40;99.90;;;;;;5071111;28;20044;-63
2021/10/04 04:43:10;;;;;;;5.43;2.15;;;10.40;99.90;;;;;;5069046;28;20048;-63
2021/10/04 04:45:36;;;;;;;5.95;2.40;;;10.40;99.90;;;;;;5067982;28;20032;-63
2021/10/04 04:48:02;;;;;;;7.10;2.40;;;10.40;99.90;;;;;;5066811;28;20048;-63
2021/10/04 04:50:29;;;;;;;4.22;2.00;;;10.40;99.90;;;;;;5068667;28;20177;-63
2021/10/04 04:52:55;;;;;;;7.32;2.13;;;10.40;99.90;;;;;;5068681;28;20108;-63
2021/10/04 04:55:20;;;;;;;5.53;2.35;;;10.40;99.90;;;;;;5066127;28;20044;-63
2021/10/04 04:57:47;;;;;;;8.45;2.35;;;10.40;99.90;;;;;;5064108;28;20055;-63
2021/10/04 05:00:14;;;;;;;5.15;2.00;;;10.40;99.90;;;;;;5067274;28;20531;-63
2021/10/04 05:02:44;;;;;;;4.72;2.70;;;10.40;99.90;;;;;;5058324;28;20523;-62
2021/10/04 05:05:11;;;;;;;4.55;2.65;;;10.40;99.90;;;;;;5067973;28;20128;-62
2021/10/04 05:07:37;;;;;;;7.35;2.30;;;10.40;99.90;;;;;;5057430;28;20036;-62
2021/10/04 05:10:04;;;;;;;5.85;2.40;;;10.40;99.90;;;;;;5055436;28;20043;-62
2021/10/04 05:12:29;;;;;;;5.13;2.50;;;10.40;99.90;;;;;;5067741;28;20362;-62
2021/10/04 05:14:55;;;;;;;4.75;2.83;;;10.30;99.90;;;;;;5063183;28;20482;-63
2021/10/04 05:17:20;;;;;;;6.80;2.28;;;10.40;99.90;;;;;;5061450;28;20068;-62
2021/10/04 05:19:46;;;;;;;8.07;2.47;;;10.30;99.90;;;;;;5064865;28;20052;-62
2021/10/04 05:22:11;;;;;;;6.38;2.42;;;10.30;99.90;;;;;;5068256;28;20040;-62
2021/10/04 05:24:37;;;;;;;4.65;2.10;;;10.30;99.90;;;;;;5069809;28;20079;-62
2021/10/04 05:27:03;;;;;;;5.50;2.90;;;10.30;99.90;;;;;;5058247;28;20033;-63
2021/10/04 05:29:28;;;;;;;7.30;2.17;;;10.30;99.90;;;;;;5068747;28;20048;-62
2021/10/04 05:31:54;;;;;;;4.22;2.53;;;10.30;99.90;;;;;;5065712;28;20109;-62
2021/10/04 05:34:20;;;;;;;6.90;2.25;;;10.30;99.90;;;;;;5069773;28;20490;-63
2021/10/04 05:36:46;;;;;;;5.07;2.40;;;10.30;99.90;;;;;;5067993;28;20044;-62
2021/10/04 05:39:11;;;;;;;4.75;2.10;;;10.30;99.90;;;;;;5069263;28;20540;-63
2021/10/04 05:41:37;;;;;;;7.40;2.22;;;10.30;99.90;;;;;;5068539;28;20238;-62
2021/10/04 05:44:03;;;;;;;4.60;2.22;;;10.30;99.90;;;;;;5069620;28;20496;-62
2021/10/04 05:46:28;;;;;;;9.15;2.13;;;10.30;99.90;;;;;;5059732;28;20049;-63
2021/10/04 05:48:54;;;;;;;5.22;1.83;;;10.30;99.90;;;;;;5070201;28;20047;-62
2021/10/04 05:51:20;;;;;;;3.83;2.05;;;10.30;99.90;;;;;;5067455;28;20087;-63
2021/10/04 05:53:46;;;;;;;5.47;1.88;;;10.30;99.90;;;;;;5068685;28;20120;-63
2021/10/04 05:56:12;;;;;;;4.07;2.10;;;10.40;99.90;;;;;;5064692;28;20478;-63
2021/10/04 05:58:37;;;;;;;9.82;2.67;;;10.40;99.90;;;;;;5056882;28;20152;-63
2021/10/04 06:01:03;;;;;;;5.20;2.17;;;10.30;99.90;;;;;;5054052;28;20050;-63
2021/10/04 06:03:28;;;;;;;6.25;2.08;;;10.40;99.90;;;;;;5063739;28;20652;-63
2021/10/04 06:05:54;;;;;;;6.50;2.10;;;10.40;99.90;;;;;;5067965;28;20044;-63
2021/10/04 06:08:19;;;;;;;6.72;2.30;;;10.40;99.90;;;;;;5066631;28;20621;-63
2021/10/04 06:10:45;;;;;;;6.50;1.90;;;10.40;99.90;;;;;;5064363;28;20492;-63
2021/10/04 06:13:10;;;;;;;5.53;2.20;;;10.40;99.90;;;;;;5069949;28;20033;-63
2021/10/04 06:15:36;;;;;;;4.80;2.00;;;10.40;99.90;;;;;;5069346;28;20037;-63
2021/10/04 06:18:02;;;;;;;7.10;2.70;;;10.50;99.90;;;;;;5058104;28;20549;-63
2021/10/04 06:20:28;;;;;;;5.82;2.05;;;10.50;99.90;;;;;;5064347;28;20048;-63
2021/10/04 06:22:54;;;;;;;6.22;2.17;;;10.60;99.90;;;;;;5069331;28;20415;-63
2021/10/04 06:25:20;;;;;;;7.25;2.17;;;10.60;99.90;;;;;;5051631;28;20123;-63
2021/10/04 06:27:47;;;;;;;6.97;2.50;;;10.60;99.90;;;;;;5067905;28;20508;-63
2021/10/04 06:30:14;;;;;;;5.68;2.42;;;10.70;99.90;;;;;;5068482;28;20037;-63
2021/10/04 06:32:40;;;;;;;4.18;2.00;;;10.70;99.90;;;;;;5069238;28;20090;-62
2021/10/04 06:35:06;;;;;;;5.03;1.80;;;10.80;99.90;;;;;;5065064;28;20071;-62
2021/10/04 06:37:32;;;;;;;4.95;1.80;;;10.80;99.90;;;;;;5058227;28;20561;-63
2021/10/04 06:39:58;;;;;;;6.80;2.22;;;10.80;99.90;;;;;;5062741;28;20111;-62
2021/10/04 06:42:24;;;;;;;3.72;2.00;;;10.80;99.90;;;;;;5060671;28;20115;-63
2021/10/04 06:44:51;;;;;;;5.75;2.20;;;10.80;99.90;;;;;;5060474;28;20048;-63
2021/10/04 06:47:17;;;;;;;7.60;2.17;;;10.80;99.90;;;;;;5068238;28;20040;-62
2021/10/04 06:49:42;;;;;;;6.35;2.38;;;10.80;99.90;;;;;;5066594;28;20111;-62
2021/10/04 06:52:08;;;;;;;5.68;2.28;;;10.80;99.90;;;;;;5057771;23;20058;-63
2021/10/04 06:54:34;;;;;;;4.75;2.13;;;10.90;99.90;;;;;;5074191;28;20029;-63
2021/10/04 06:56:59;;;;;;;6.68;2.22;;;10.90;99.90;;;;;;5067000;28;20051;-62
2021/10/04 06:59:25;;;;;;;7.10;2.00;;;10.90;99.90;;;;;;5078231;28;20720;-63
2021/10/04 07:01:51;;;;;;;3.63;2.28;;;10.90;99.90;;;;;;5071417;28;20036;-63
2021/10/04 07:04:16;;;;;;;7.43;2.30;;;11.00;99.90;;;;;;5071112;28;20040;-63
2021/10/04 07:06:42;;;;;;;7.13;2.15;;;11.00;99.90;;;;;;5071396;28;20413;-63
2021/10/04 07:09:07;;;;;;;6.05;2.40;;;11.00;99.90;;;;;;5072307;28;20067;-63
2021/10/04 07:11:33;;;;;;;5.93;2.20;;;11.10;99.90;;;;;;5072858;28;20036;-63
2021/10/04 07:13:58;;;;;;;4.85;1.90;;;11.10;99.90;;;;;;5071666;28;20602;-63
2021/10/04 07:16:24;;;;;;;6.22;2.13;;;11.10;99.90;;;;;;5070504;28;20045;-62
2021/10/04 07:18:50;;;;;;;4.43;2.10;;;11.10;99.90;;;;;;5072899;28;20452;-62
2021/10/04 07:21:15;;;;;;;5.47;2.08;;;11.20;99.90;;;;;;5073804;28;20389;-63
2021/10/04 07:23:43;;;;;;;4.82;2.35;;;11.20;99.90;;;;;;5070868;28;20037;-62
2021/10/04 07:26:10;;;;;;;10.43;2.13;;;11.20;99.90;;;;;;5071218;28;20052;-63
2021/10/04 07:28:36;;;;;;;3.55;2.15;;;11.20;99.90;;;;;;5070133;28;20067;-62
2021/10/04 07:31:02;;;;;;;4.63;1.92;;;11.20;99.90;;;;;;5071246;28;20040;-63
2021/10/04 07:33:28;;;;;;;6.28;1.98;;;11.30;99.90;;;;;;5089255;28;20119;-62
2021/10/04 07:35:55;;;;;;;5.88;2.03;;;11.30;99.90;;;;;;5083446;28;20107;-62
2021/10/04 07:38:21;;;;;;;6.38;1.98;;;11.30;99.90;;;;;;5071357;28;20052;-63
2021/10/04 07:40:47;;;;;;;5.47;1.80;;;11.30;99.90;;;;;;5084135;28;20094;-63
2021/10/04 07:43:13;;;;;;;5.20;2.03;;;11.30;99.90;;;;;;5080467;28;20047;-62
2021/10/04 07:45:38;;;;;;;7.22;2.20;;;11.30;99.90;;;;;;5077937;28;20058;-62
2021/10/04 07:48:04;;;;;;;7.53;2.60;;;11.40;99.90;;;;;;5069120;28;20077;-62
2021/10/04 07:50:30;;;;;;;6.25;2.40;;;11.40;99.90;;;;;;5065177;28;20097;-62
2021/10/04 07:52:56;;;;;;;4.72;2.20;;;11.50;99.90;;;;;;5083224;28;20102;-63
2021/10/04 07:55:22;;;;;;;77.53;7.43;;;11.50;99.90;;;;;;5072198;28;20071;-62
2021/10/04 07:57:48;;;;;;;4.18;2.10;;;11.50;99.90;;;;;;5067311;28;20486;-62
2021/10/04 08:00:15;;;;;;;7.85;1.95;;;11.50;99.90;;;;;;5061594;28;20524;-62
2021/10/04 08:02:41;;;;;;;3.72;2.20;;;11.60;99.90;;;;;;5072667;28;20093;-63
2021/10/04 08:05:08;;;;;;;6.72;2.13;;;11.60;99.90;;;;;;5076714;28;20436;-62
2021/10/04 08:07:34;;;;;;;3.50;1.92;;;11.60;99.90;;;;;;5067363;28;20040;-62
2021/10/04 08:10:01;;;;;;;4.80;2.10;;;11.70;99.90;;;;;;5068220;28;20040;-63
2021/10/04 08:12:27;;;;;;;6.20;2.10;;;11.70;99.90;;;;;;5068914;28;20041;-63
2021/10/04 08:14:53;;;;;;;5.35;2.20;;;11.80;99.90;;;;;;5069501;28;20040;-63
2021/10/04 08:17:19;;;;;;;7.22;2.25;;;11.80;99.90;;;;;;5068543;28;20040;-63
2021/10/04 08:19:45;;;;;;;6.35;1.98;;;11.90;99.90;;;;;;5069705;28;20515;-63
2021/10/04 08:22:10;;;;;;;3.35;1.95;;;11.90;99.90;;;;;;5062220;28;20109;-62
2021/10/04 08:24:36;;;;;;;7.65;2.15;;;12.00;99.90;;;;;;5068017;28;20127;-63
2021/10/04 08:27:02;;;;;;;3.88;1.92;;;12.00;99.90;;;;;;5068800;28;20059;-62
2021/10/04 08:29:27;;;;;;;3.80;1.67;;;12.00;99.90;;;;;;5073439;28;20032;-62
2021/10/04 08:31:53;;;;;;;4.47;1.88;;;12.10;99.90;;;;;;5082787;28;20495;-63
2021/10/04 08:34:18;;;;;;;3.50;1.65;;;12.10;99.90;;;;;;5066130;28;20065;-63
2021/10/04 08:36:44;;;;;;;5.50;2.13;;;12.10;99.90;;;;;;5073005;28;20398;-63
2021/10/04 08:39:10;;;;;;;4.25;2.00;;;12.20;99.90;;;;;;5067514;28;20127;-63
2021/10/04 08:41:37;;;;;;;7.38;1.95;;;12.20;99.90;;;;;;5069287;28;20436;-63
2021/10/04 08:44:07;;;;;;;4.60;1.98;;;12.20;99.90;;;;;;5071054;28;20083;-63
2021/10/04 08:46:41;;;;;;;5.05;2.10;;;12.20;99.90;;;;;;5069143;28;20032;-63
2021/10/04 08:49:07;;;;;;;4.32;1.67;;;12.30;99.90;;;;;;5074343;28;20082;-63
2021/10/04 08:51:33;;;;;;;6.68;2.05;;;12.40;99.90;;;;;;5065102;28;20055;-63
2021/10/04 08:53:59;;;;;;;3.72;1.77;;;12.60;99.90;;;;;;5070448;28;20045;-63
2021/10/04 08:56:25;;;;;;;3.30;1.55;;;12.70;99.90;;;;;;5046449;28;20368;-63
2021/10/04 08:58:50;;;;;;;9.70;1.90;;;12.80;99.90;;;;;;5066753;28;20119;-63
2021/10/04 09:01:20;;;;;;;3.55;1.40;;;13.00;99.90;;;;;;5068675;28;20115;-63
2021/10/04 09:03:55;;;;;;;5.47;1.73;;;13.10;99.90;;;;;;5058795;28;20049;-62
2021/10/04 09:06:29;;;;;;;2.67;1.63;;;13.20;99.90;;;;;;5069303;28;20033;-63
2021/10/04 09:08:56;;;;;;;4.10;1.50;;;13.30;99.90;;;;;;5064975;28;20125;-63
2021/10/04 09:11:40;;;;;;;2.97;1.90;;;13.40;99.90;;;;;;5064723;28;20032;-63
2021/10/04 09:14:12;;;;;;;4.45;1.73;;;13.50;99.90;;;;;;5065286;28;20147;-63
2021/10/04 09:16:49;;;;;;;3.60;1.85;;;13.60;99.90;;;;;;5065873;28;20041;-63
2021/10/04 09:19:27;;;;;;;4.15;1.45;;;13.70;99.90;;;;;;5051602;28;20174;-63
2021/10/04 09:22:18;;;;;;;4.70;1.75;;;13.70;99.90;;;;;;5061433;28;20028;-63
2021/10/04 09:24:58;;;;;;;4.65;1.67;;;13.70;99.90;;;;;;5069758;28;20036;-63
2021/10/04 09:27:36;;;;;;;6.43;1.48;;;13.80;99.90;;;;;;5058988;28;20049;-63
2021/10/04 09:30:10;;;;;;;4.82;1.50;;;13.80;99.90;;;;;;5060294;28;20059;-63
2021/10/04 09:32:45;;;;;;;4.47;1.70;;;13.90;99.90;;;;;;5065746;28;20040;-62
2021/10/04 09:35:22;;;;;;;4.90;1.60;;;13.90;99.90;;;;;;5063356;28;20493;-62
2021/10/04 09:37:54;;;;;;;4.55;1.67;;;14.00;99.90;;;;;;5061836;28;20036;-62
2021/10/04 09:40:33;;;;;;;2.95;1.30;;;14.00;99.90;;;;;;5066533;28;20036;-62
2021/10/04 09:43:03;;;;;;;3.83;1.33;;;14.20;99.90;;;;;;5058218;28;20043;-62
2021/10/04 09:45:29;;;;;;;5.68;1.58;;;14.30;99.90;;;;;;5070569;28;20052;-62
2021/10/04 09:47:56;;;;;;;2.38;1.33;;;14.30;99.90;;;;;;5059250;28;20036;-62
2021/10/04 09:50:28;;;;;;;4.72;1.60;;;14.40;99.90;;;;;;5068936;28;20041;-63
2021/10/04 09:52:55;;;;;;;7.05;1.95;;;14.50;99.90;;;;;;5069057;28;20106;-62
2021/10/04 09:55:27;;;;;;;6.38;1.70;;;14.50;99.90;;;;;;5060467;28;20047;-62
2021/10/04 09:57:58;;;;;;;7.68;1.95;;;14.60;99.90;;;;;;5055046;28;20486;-62
2021/10/04 10:00:24;;;;;;;6.13;1.77;;;14.60;99.90;;;;;;5050211;28;20045;-63
2021/10/04 10:02:55;;;;;;;5.10;1.70;;;14.70;99.90;;;;;;5051204;28;20462;-62
2021/10/04 10:05:25;;;;;;;3.28;1.25;;;14.80;99.90;;;;;;5066255;28;20426;-62
2021/10/04 10:07:51;;;;;;;4.10;1.40;;;14.80;99.90;;;;;;5066500;28;20037;-62
2021/10/04 10:10:18;;;;;;;3.85;1.33;;;14.90;99.90;;;;;;5064710;28;20037;-63
2021/10/04 10:12:43;;;;;;;3.45;1.48;;;15.00;99.90;;;;;;5063566;28;20037;-62
2021/10/04 10:15:15;;;;;;;6.38;1.73;;;15.10;99.90;;;;;;5063397;28;20497;-63
2021/10/04 10:17:41;;;;;;;5.30;1.60;;;15.20;99.90;;;;;;5067116;28;20377;-63
2021/10/04 10:20:07;;;;;;;4.80;1.15;;;15.20;99.90;;;;;;5063936;28;20846;-63
2021/10/04 10:22:45;;;;;;;2.60;1.15;;;15.30;99.90;;;;;;5066181;28;20485;-62
2021/10/04 10:25:27;;;;;;;3.00;1.35;;;15.30;99.90;;;;;;5061244;28;20344;-62
2021/10/04 10:27:53;;;;;;;3.63;1.30;;;15.40;99.90;;;;;;5061729;28;20048;-62
2021/10/04 10:30:21;;;;;;;3.95;1.30;;;15.50;99.90;;;;;;5066101;28;20033;-62
2021/10/04 10:32:46;;;;;;;6.05;1.80;;;15.60;99.90;;;;;;5072251;28;20050;-62
2021/10/04 10:35:12;;;;;;;8.88;1.75;;;15.70;99.90;;;;;;5063449;28;20032;-63
2021/10/04 10:37:46;;;;;;;3.53;1.20;;;15.70;99.90;;;;;;5062124;28;20033;-62
2021/10/04 10:40:16;;;;;;;7.28;1.52;;;15.70;99.90;;;;;;5068910;28;20089;-62
2021/10/04 10:43:04;;;;;;;4.82;1.70;;;15.80;99.90;;;;;;5072058;28;20367;-62
2021/10/04 10:45:42;;;;;;;8.00;1.50;;;15.90;99.90;;;;;;5065445;28;20497;-63
2021/10/04 10:48:09;;;;;;;4.90;1.08;;;15.90;99.90;;;;;;5071525;28;20072;-63
2021/10/04 10:50:45;;;;;;;5.53;1.27;;;15.90;99.90;;;;;;5067647;28;20035;-62
2021/10/04 10:53:17;;;;;;;4.60;1.13;;;16.00;99.90;;;;;;5071338;28;20135;-63
2021/10/04 10:55:52;;;;;;;3.88;1.10;;;16.00;99.90;;;;;;5070848;28;20051;-62
2021/10/04 10:58:23;;;;;;;6.07;1.00;;;16.10;99.90;;;;;;5067294;28;20123;-62
2021/10/04 11:00:48;;;;;;;5.78;1.30;;;16.10;99.90;;;;;;5071299;28;20032;-62
2021/10/04 11:03:23;;;;;;;6.57;1.40;;;16.10;99.90;;;;;;5058674;28;20488;-62
2021/10/04 11:06:02;;;;;;;4.03;1.27;;;16.20;99.90;;;;;;5072931;28;20043;-62
2021/10/04 11:08:27;;;;;;;1.75;0.80;;;16.30;99.90;;;;;;5074023;28;20033;-62
2021/10/04 11:10:53;;;;;;;7.13;1.65;;;16.30;99.90;;;;;;5072635;28;20162;-62
2021/10/04 11:13:29;;;;;;;4.25;1.00;;;16.40;99.90;;;;;;5069954;28;20037;-62
2021/10/04 11:16:20;;;;;;;3.45;1.00;;;16.40;99.90;;;;;;5064412;28;20475;-62
2021/10/04 11:18:47;;;;;;;5.32;1.02;;;16.40;99.90;;;;;;5039356;28;20048;-62
2021/10/04 11:21:18;;;;;;;3.08;0.90;;;16.40;99.90;;;;;;5058202;28;20043;-62
2021/10/04 11:23:47;;;;;;;2.55;0.98;;;16.50;99.90;;;;;;5060680;28;20040;-62
2021/10/04 11:26:14;;;;;;;4.10;1.17;;;16.60;99.90;;;;;;5056930;28;20102;-62
2021/10/04 11:28:44;;;;;;;4.47;1.10;;;16.70;99.90;;;;;;5063388;28;20036;-62
2021/10/04 11:31:12;;;;;;;4.05;1.00;;;16.70;99.90;;;;;;5067120;28;21539;-62
2021/10/04 11:33:46;;;;;;;4.18;1.00;;;16.80;99.90;;;;;;5071159;28;20455;-62
2021/10/04 11:36:13;;;;;;;3.70;0.95;;;16.80;99.90;;;;;;5067526;28;20037;-62
2021/10/04 11:38:50;;;;;;;8.23;1.05;;;16.80;99.90;;;;;;5068108;28;20043;-62
2021/10/04 11:41:41;;;;;;;4.05;0.70;;;16.90;99.90;;;;;;5070767;28;20090;-62
2021/10/04 11:44:13;;;;;;;3.88;0.90;;;16.90;99.90;;;;;;5065775;28;20131;-62
2021/10/04 11:46:40;;;;;;;;;;;16.90;99.90;;;;;;5057856;28;20497;-63
2021/10/04 11:49:09;;;;;;;6.07;0.73;;;17.00;99.90;;;;;;5076467;28;19916;-62
2021/10/04 11:51:45;;;;;;;3.00;1.05;;;17.00;99.90;;;;;;5071415;28;20490;-62
2021/10/04 11:54:11;;;;;;;3.95;0.75;;;17.00;99.90;;;;;;5075850;28;20389;-62
2021/10/04 11:56:39;;;;;;;5.65;1.17;;;17.10;99.90;;;;;;5063468;28;20044;-62
2021/10/04 11:59:05;;;;;;;3.53;0.95;;;17.10;99.90;;;;;;5066085;28;20147;-62
2021/10/04 12:01:32;;;;;;;2.63;0.50;;;17.10;99.90;;;;;;5071086;28;20123;-62
2021/10/04 12:04:00;;;;;;;4.93;1.00;;;17.20;99.90;;;;;;5065330;28;20037;-62
2021/10/04 12:06:30;;;;;;;3.15;0.73;;;17.20;99.90;;;;;;5067703;28;20044;-62
2021/10/04 12:08:56;;;;;;;4.32;0.88;;;17.20;99.90;;;;;;5068750;28;20052;-62
2021/10/04 12:11:22;;;;;;;4.57;0.90;;;17.20;99.90;;;;;;5064003;28;20113;-62
2021/10/04 12:13:48;;;;;;;5.50;0.93;;;17.30;99.90;;;;;;5070567;28;20063;-62
2021/10/04 12:16:16;;;;;;;3.33;1.02;;;17.20;99.90;;;;;;5067081;28;20110;-62
2021/10/04 12:18:49;;;;;;;6.05;0.98;;;17.20;99.90;;;;;;5069213;28;20040;-62
2021/10/04 12:21:31;;;;;;;3.25;1.00;;;17.30;99.90;;;;;;5070657;28;20397;-62
2021/10/04 12:24:23;;;;;;;4.35;1.05;;;17.30;99.90;;;;;;5063439;28;20051;-62
2021/10/04 12:27:02;;;;;;;6.13;1.25;;;17.40;99.90;;;;;;5063495;28;20048;-62
2021/10/04 12:29:34;;;;;;;3.03;0.82;;;17.40;99.90;;;;;;5066384;28;20154;-63
2021/10/04 12:32:24;;;;;;;3.65;1.17;;;17.40;99.90;;;;;;5069255;28;20412;-62
2021/10/04 12:35:14;;;;;;;3.30;0.52;;;17.50;99.90;;;;;;5066564;28;20040;-62
2021/10/04 12:38:03;;;;;;;3.35;0.80;;;17.50;99.90;;;;;;5065313;28;20068;-63
2021/10/04 12:40:33;;;;;;;5.80;1.10;;;17.40;99.90;;;;;;5061966;28;20048;-63
2021/10/04 12:43:06;;;;;;;4.13;0.95;;;17.40;99.90;;;;;;5070250;28;20058;-62
2021/10/04 12:45:34;;;;;;;3.03;0.80;;;17.50;99.90;;;;;;5068172;28;20051;-62
2021/10/04 12:48:03;;;;;;;3.75;0.98;;;17.50;99.90;;;;;;5067488;28;20045;-62
2021/10/04 12:50:35;;;;;;;2.13;0.90;;;17.60;99.90;;;;;;5061835;28;20105;-62